createdAt,value
2017-08-11T00:00:08.577Z,98.86
2017-08-11T00:01:17.937Z,98.1
2017-08-11T00:02:26.820Z,98.96
2017-08-11T00:03:35.700Z,98.96
2017-08-11T00:04:44.584Z,99.15
2017-08-11T00:05:54.161Z,99.53
2017-08-11T00:07:03.997Z,98.77
2017-08-11T00:08:13.527Z,99.34
2017-08-11T00:09:22.735Z,99.15
2017-08-11T00:10:32.264Z,98.48
2017-08-11T00:11:41.472Z,99.05
2017-08-11T00:12:50.657Z,99.53
2017-08-11T00:13:59.865Z,99.99
2017-08-11T00:15:10.042Z,99.63
2017-08-11T00:16:19.577Z,99.53
2017-08-11T00:17:29.109Z,99.73
2017-08-11T00:18:38.325Z,99.73
2017-08-11T00:19:47.853Z,99.82
2017-08-11T00:20:57.061Z,99.99
2017-08-11T00:22:05.942Z,99.73
2017-08-11T00:23:15.474Z,99.82
2017-08-11T00:24:24.981Z,99.99
2017-08-11T00:25:34.516Z,99.99
2017-08-11T00:26:44.045Z,99.99
2017-08-11T00:27:53.571Z,99.99
2017-08-11T00:29:03.426Z,99.99
2017-08-11T00:30:12.507Z,99.63
2017-08-11T00:31:22.361Z,99.53
2017-08-11T00:32:31.888Z,99.82
2017-08-11T00:33:40.794Z,99.24
2017-08-11T00:34:49.678Z,99.24
2017-08-11T00:35:58.885Z,99.63
2017-08-11T00:37:08.414Z,99.34
2017-08-11T00:38:17.626Z,99.99
2017-08-11T00:39:27.158Z,99.99
2017-08-11T00:40:36.688Z,99.99
2017-08-11T00:41:46.425Z,99.99
2017-08-11T00:42:55.959Z,99.99
2017-08-11T00:44:05.492Z,99.99
2017-08-11T00:45:15.349Z,99.99
2017-08-11T00:46:24.890Z,99.99
2017-08-11T00:47:34.418Z,99.99
2017-08-11T00:48:43.949Z,99.96
2017-08-11T00:49:53.480Z,99.99
2017-08-11T00:51:02.693Z,99.99
2017-08-11T00:52:12.877Z,99.99
2017-08-11T00:53:22.705Z,99.99
2017-08-11T00:54:32.558Z,99.99
2017-08-11T00:55:41.438Z,99.68
2017-08-11T00:56:50.971Z,99.91
2017-08-11T00:58:00.179Z,99.99
2017-08-11T00:59:09.534Z,99.99
2017-08-11T01:00:18.767Z,99.99
2017-08-11T01:01:28.304Z,99.99
2017-08-11T01:02:38.155Z,99.99
2017-08-11T01:03:47.685Z,99.99
2017-08-11T01:04:57.194Z,99.99
2017-08-11T01:06:06.078Z,99.99
2017-08-11T01:07:15.606Z,99.99
2017-08-11T01:08:25.461Z,99.87
2017-08-11T01:09:34.681Z,99.91
2017-08-11T01:10:44.189Z,99.99
2017-08-11T01:11:54.042Z,99.99
2017-08-11T01:13:03.259Z,99.99
2017-08-11T01:14:12.784Z,99.99
2017-08-11T01:15:21.996Z,99.99
2017-08-11T01:16:32.005Z,99.99
2017-08-11T01:17:41.209Z,99.99
2017-08-11T01:18:50.429Z,99.99
2017-08-11T01:19:59.965Z,99.99
2017-08-11T01:21:09.491Z,99.99
2017-08-11T01:22:18.749Z,99.99
2017-08-11T01:23:28.282Z,99.99
2017-08-11T01:24:38.130Z,99.99
2017-08-11T01:25:47.697Z,99.99
2017-08-11T01:26:56.902Z,99.99
2017-08-11T01:28:06.173Z,99.99
2017-08-11T01:29:15.768Z,99.99
2017-08-11T01:30:25.297Z,99.99
2017-08-11T01:31:34.850Z,99.99
2017-08-11T01:32:43.741Z,99.99
2017-08-11T01:33:52.771Z,99.99
2017-08-11T01:35:02.305Z,99.99
2017-08-11T01:36:11.510Z,99.99
2017-08-11T01:37:21.046Z,99.99
2017-08-11T01:38:31.224Z,99.99
2017-08-11T01:39:41.510Z,99.99
2017-08-11T01:40:51.363Z,99.99
2017-08-11T01:42:00.243Z,99.99
2017-08-11T01:43:10.100Z,99.99
2017-08-11T01:44:19.957Z,99.99
2017-08-11T01:45:29.585Z,99.99
2017-08-11T01:46:38.469Z,99.99
2017-08-11T01:47:48.317Z,99.99
2017-08-11T01:48:57.201Z,99.99
2017-08-11T01:50:06.735Z,99.99
2017-08-11T01:51:16.640Z,99.99
2017-08-11T01:52:25.530Z,99.99
2017-08-11T01:53:34.736Z,99.99
2017-08-11T01:54:44.267Z,99.99
2017-08-11T01:55:53.149Z,99.99
2017-08-11T01:57:02.078Z,99.99
2017-08-11T01:58:10.962Z,99.99
2017-08-11T01:59:20.177Z,99.99
2017-08-11T02:00:30.030Z,99.99
2017-08-11T02:01:39.564Z,99.99
2017-08-11T02:02:49.146Z,99.99
2017-08-11T02:03:58.676Z,99.99
2017-08-11T02:05:08.216Z,99.99
2017-08-11T02:06:18.068Z,99.99
2017-08-11T02:07:27.286Z,99.99
2017-08-11T02:08:36.968Z,99.99
2017-08-11T02:09:46.174Z,99.99
2017-08-11T02:10:56.350Z,99.99
2017-08-11T02:12:05.882Z,99.99
2017-08-11T02:13:15.412Z,99.99
2017-08-11T02:14:25.145Z,99.99
2017-08-11T02:15:34.024Z,99.99
2017-08-11T02:16:43.883Z,99.99
2017-08-11T02:17:53.097Z,99.99
2017-08-11T02:19:03.271Z,99.99
2017-08-11T02:20:12.817Z,99.99
2017-08-11T02:21:22.350Z,99.99
2017-08-11T02:22:31.875Z,99.99
2017-08-11T02:23:41.729Z,99.99
2017-08-11T02:24:51.580Z,99.99
2017-08-11T02:26:00.616Z,99.99
2017-08-11T02:27:10.143Z,99.99
2017-08-11T02:28:19.675Z,99.99
2017-08-11T02:29:29.244Z,99.99
2017-08-11T02:30:38.776Z,99.99
2017-08-11T02:31:49.006Z,99.99
2017-08-11T02:32:58.870Z,99.99
2017-08-11T02:34:08.720Z,99.99
2017-08-11T02:35:18.581Z,99.99
2017-08-11T02:36:28.433Z,99.99
2017-08-11T02:37:38.388Z,99.99
2017-08-11T02:38:47.916Z,99.99
2017-08-11T02:39:57.458Z,99.99
2017-08-11T02:41:06.983Z,99.99
2017-08-11T02:42:16.512Z,99.99
2017-08-11T02:43:26.145Z,99.99
2017-08-11T02:44:35.681Z,99.99
2017-08-11T02:45:44.889Z,99.99
2017-08-11T02:46:54.748Z,99.99
2017-08-11T02:48:03.634Z,99.99
2017-08-11T02:49:13.640Z,99.99
2017-08-11T02:50:23.169Z,99.99
2017-08-11T02:51:32.704Z,99.99
2017-08-11T02:52:41.912Z,99.99
2017-08-11T02:53:51.447Z,99.99
2017-08-11T02:55:01.279Z,99.99
2017-08-11T02:56:10.808Z,99.99
2017-08-11T02:57:20.015Z,99.99
2017-08-11T02:58:28.896Z,99.99
2017-08-11T02:59:37.776Z,99.99
2017-08-11T03:00:47.407Z,99.99
2017-08-11T03:01:56.616Z,99.99
2017-08-11T03:03:05.824Z,99.99
2017-08-11T03:04:15.354Z,99.99
2017-08-11T03:05:24.887Z,99.99
2017-08-11T03:06:34.239Z,99.99
2017-08-11T03:07:43.773Z,99.99
2017-08-11T03:08:52.977Z,99.99
2017-08-11T03:10:01.870Z,99.99
2017-08-11T03:11:11.400Z,99.99
2017-08-11T03:12:20.613Z,99.99
2017-08-11T03:13:29.821Z,99.99
2017-08-11T03:14:39.357Z,99.99
2017-08-11T03:15:49.537Z,99.99
2017-08-11T03:16:58.749Z,99.99
2017-08-11T03:18:08.333Z,99.99
2017-08-11T03:19:17.216Z,99.99
2017-08-11T03:20:26.423Z,99.99
2017-08-11T03:21:35.305Z,99.99
2017-08-11T03:22:44.192Z,99.99
2017-08-11T03:23:53.272Z,99.99
2017-08-11T03:25:02.478Z,99.99
2017-08-11T03:26:12.009Z,99.99
2017-08-11T03:27:21.214Z,99.99
2017-08-11T03:28:31.072Z,99.99
2017-08-11T03:29:40.254Z,99.99
2017-08-11T03:30:49.785Z,99.99
2017-08-11T03:31:59.652Z,99.99
2017-08-11T03:33:09.177Z,99.99
2017-08-11T03:34:19.353Z,99.99
2017-08-11T03:35:28.536Z,99.99
2017-08-11T03:36:37.742Z,99.99
2017-08-11T03:37:46.625Z,99.99
2017-08-11T03:38:56.476Z,99.99
2017-08-11T03:40:05.684Z,99.99
2017-08-11T03:41:14.722Z,99.99
2017-08-11T03:42:24.250Z,99.99
2017-08-11T03:43:33.781Z,99.99
2017-08-11T03:44:43.309Z,99.99
2017-08-11T03:45:53.485Z,99.99
2017-08-11T03:47:03.585Z,99.99
2017-08-11T03:48:13.446Z,99.99
2017-08-11T03:49:22.978Z,99.99
2017-08-11T03:50:32.184Z,99.99
2017-08-11T03:51:41.390Z,99.99
2017-08-11T03:52:51.270Z,99.99
2017-08-11T03:54:00.478Z,99.99
2017-08-11T03:55:09.682Z,99.99
2017-08-11T03:56:19.550Z,99.99
2017-08-11T03:57:29.103Z,99.99
2017-08-11T03:58:38.412Z,99.99
2017-08-11T03:59:47.295Z,99.99
2017-08-11T04:00:56.828Z,99.99
2017-08-11T04:02:06.380Z,99.99
2017-08-11T04:03:15.583Z,99.99
2017-08-11T04:04:25.264Z,99.99
2017-08-11T04:05:35.121Z,99.99
2017-08-11T04:06:44.328Z,99.99
2017-08-11T04:07:53.856Z,99.99
2017-08-11T04:09:03.709Z,99.99
2017-08-11T04:10:13.711Z,99.99
2017-08-11T04:11:22.589Z,99.99
2017-08-11T04:12:32.122Z,99.99
2017-08-11T04:13:41.972Z,99.99
2017-08-11T04:14:50.853Z,99.99
2017-08-11T04:16:00.864Z,99.99
2017-08-11T04:17:10.393Z,99.99
2017-08-11T04:18:19.604Z,99.99
2017-08-11T04:19:28.809Z,99.99
2017-08-11T04:20:37.691Z,99.99
2017-08-11T04:21:47.269Z,99.99
2017-08-11T04:22:56.475Z,99.99
2017-08-11T04:24:06.003Z,99.99
2017-08-11T04:25:14.893Z,99.99
2017-08-11T04:26:24.423Z,99.99
2017-08-11T04:27:34.428Z,99.99
2017-08-11T04:28:43.662Z,99.99
2017-08-11T04:29:52.870Z,99.99
2017-08-11T04:31:01.757Z,99.99
2017-08-11T04:32:10.965Z,99.99
2017-08-11T04:33:19.844Z,99.99
2017-08-11T04:34:29.051Z,99.99
2017-08-11T04:35:38.258Z,99.99
2017-08-11T04:36:47.786Z,99.99
2017-08-11T04:37:57.313Z,99.99
2017-08-11T04:39:07.104Z,99.99
2017-08-11T04:40:16.954Z,99.99
2017-08-11T04:41:26.492Z,99.99
2017-08-11T04:42:36.035Z,99.99
2017-08-11T04:43:45.608Z,99.99
2017-08-11T04:44:55.122Z,99.99
2017-08-11T04:46:04.350Z,99.99
2017-08-11T04:47:13.563Z,99.99
2017-08-11T04:48:23.417Z,99.99
2017-08-11T04:49:32.625Z,99.99
2017-08-11T04:50:41.881Z,99.99
2017-08-11T04:51:50.763Z,99.99
2017-08-11T04:53:00.295Z,99.99
2017-08-11T04:54:09.832Z,99.99
2017-08-11T04:55:19.359Z,99.99
2017-08-11T04:56:28.889Z,99.99
2017-08-11T04:57:38.744Z,99.99
2017-08-11T04:58:47.952Z,99.99
2017-08-11T04:59:57.479Z,99.99
2017-08-11T05:01:06.693Z,99.99
2017-08-11T05:02:17.453Z,99.99
2017-08-11T05:03:27.324Z,99.99
2017-08-11T05:04:36.867Z,99.99
2017-08-11T05:05:45.752Z,99.99
2017-08-11T05:06:55.336Z,99.99
2017-08-11T05:08:05.251Z,99.99
2017-08-11T05:09:14.142Z,99.99
2017-08-11T05:10:24.003Z,99.99
2017-08-11T05:11:32.895Z,99.99
2017-08-11T05:12:42.113Z,99.99
2017-08-11T05:13:51.791Z,99.99
2017-08-11T05:15:01.320Z,99.99
2017-08-11T05:16:10.855Z,99.99
2017-08-11T05:17:19.737Z,99.99
2017-08-11T05:18:28.624Z,99.99
2017-08-11T05:19:37.985Z,99.99
2017-08-11T05:20:47.838Z,99.99
2017-08-11T05:21:57.378Z,99.99
2017-08-11T05:23:06.268Z,99.99
2017-08-11T05:24:15.475Z,99.99
2017-08-11T05:25:25.009Z,99.99
2017-08-11T05:26:34.860Z,99.99
2017-08-11T05:27:44.391Z,99.99
2017-08-11T05:28:53.920Z,99.99
2017-08-11T05:30:02.809Z,99.99
2017-08-11T05:31:13.145Z,99.99
2017-08-11T05:32:22.680Z,99.99
2017-08-11T05:33:31.886Z,99.99
2017-08-11T05:34:41.094Z,99.99
2017-08-11T05:35:50.299Z,99.99
2017-08-11T05:36:59.705Z,99.99
2017-08-11T05:38:08.910Z,99.99
2017-08-11T05:39:18.439Z,99.99
2017-08-11T05:40:27.321Z,99.99
2017-08-11T05:41:36.206Z,99.99
2017-08-11T05:42:45.561Z,99.99
2017-08-11T05:43:54.772Z,99.99
2017-08-11T05:45:04.946Z,99.99
2017-08-11T05:46:14.154Z,99.99
2017-08-11T05:47:23.686Z,99.99
2017-08-11T05:48:32.899Z,99.99
2017-08-11T05:49:42.421Z,99.99
2017-08-11T05:50:51.957Z,99.99
2017-08-11T05:52:01.160Z,99.99
2017-08-11T05:53:10.041Z,99.99
2017-08-11T05:54:19.349Z,99.99
2017-08-11T05:55:28.235Z,99.99
2017-08-11T05:56:37.442Z,99.99
2017-08-11T05:57:46.647Z,99.99
2017-08-11T05:58:55.861Z,99.99
2017-08-11T06:00:05.053Z,99.99
2017-08-11T06:01:14.264Z,99.99
2017-08-11T06:02:23.469Z,99.99
2017-08-11T06:03:32.995Z,99.99
2017-08-11T06:04:42.524Z,99.99
2017-08-11T06:05:51.513Z,99.99
2017-08-11T06:07:01.041Z,99.99
2017-08-11T06:08:10.573Z,99.99
2017-08-11T06:09:20.429Z,99.99
2017-08-11T06:10:30.290Z,99.99
2017-08-11T06:11:40.194Z,99.99
2017-08-11T06:12:50.402Z,99.99
2017-08-11T06:13:59.931Z,99.99
2017-08-11T06:15:09.785Z,99.99
2017-08-11T06:16:18.678Z,99.99
2017-08-11T06:17:28.644Z,99.99
2017-08-11T06:18:37.851Z,99.99
2017-08-11T06:19:47.382Z,99.99
2017-08-11T06:20:57.239Z,99.99
2017-08-11T06:22:06.771Z,99.99
2017-08-11T06:23:16.281Z,99.99
2017-08-11T06:24:25.488Z,99.99
2017-08-11T06:25:34.897Z,99.99
2017-08-11T06:26:44.426Z,99.99
2017-08-11T06:27:54.277Z,99.99
2017-08-11T06:29:04.279Z,99.99
2017-08-11T06:30:13.170Z,99.99
2017-08-11T06:31:22.697Z,99.99
2017-08-11T06:32:32.224Z,99.99
2017-08-11T06:33:41.429Z,99.99
2017-08-11T06:34:51.054Z,99.99
2017-08-11T06:36:00.585Z,99.99
2017-08-11T06:37:10.444Z,99.99
2017-08-11T06:38:19.653Z,99.99
2017-08-11T06:39:29.180Z,99.99
2017-08-11T06:40:38.233Z,99.99
2017-08-11T06:41:47.756Z,99.99
2017-08-11T06:42:57.610Z,99.99
2017-08-11T06:44:07.463Z,99.99
2017-08-11T06:45:16.673Z,99.99
2017-08-11T06:46:26.253Z,99.99
2017-08-11T06:47:35.781Z,99.99
2017-08-11T06:48:45.309Z,99.99
2017-08-11T06:49:54.857Z,99.99
2017-08-11T06:51:03.742Z,99.99
2017-08-11T06:52:13.196Z,99.99
2017-08-11T06:53:22.402Z,99.99
2017-08-11T06:54:32.258Z,99.99
2017-08-11T06:55:41.463Z,99.99
2017-08-11T06:56:50.670Z,99.99
2017-08-11T06:57:59.926Z,99.99
2017-08-11T06:59:09.129Z,99.99
2017-08-11T07:00:18.339Z,99.99
2017-08-11T07:01:27.220Z,99.99
2017-08-11T07:02:37.078Z,99.99
2017-08-11T07:03:45.959Z,99.99
2017-08-11T07:04:55.498Z,99.99
2017-08-11T07:06:05.028Z,99.99
2017-08-11T07:07:14.561Z,99.99
2017-08-11T07:08:24.097Z,99.99
2017-08-11T07:09:33.930Z,99.99
2017-08-11T07:10:43.135Z,99.99
2017-08-11T07:11:52.669Z,99.99
2017-08-11T07:13:01.878Z,99.99
2017-08-11T07:14:11.411Z,99.99
2017-08-11T07:15:20.776Z,99.99
2017-08-11T07:16:29.990Z,99.99
2017-08-11T07:17:39.530Z,99.99
2017-08-11T07:18:49.072Z,99.99
2017-08-11T07:19:58.923Z,99.99
2017-08-11T07:21:08.338Z,99.99
2017-08-11T07:22:17.548Z,99.99
2017-08-11T07:23:26.754Z,99.99
2017-08-11T07:24:35.960Z,99.99
2017-08-11T07:25:45.173Z,99.99
2017-08-11T07:26:54.857Z,99.99
2017-08-11T07:28:04.387Z,99.99
2017-08-11T07:29:14.261Z,99.99
2017-08-11T07:30:23.469Z,99.99
2017-08-11T07:31:32.359Z,99.99
2017-08-11T07:32:41.615Z,99.99
2017-08-11T07:33:51.161Z,99.99
2017-08-11T07:35:00.687Z,99.99
2017-08-11T07:36:09.895Z,99.99
2017-08-11T07:37:19.099Z,99.99
2017-08-11T07:38:29.247Z,99.99
2017-08-11T07:39:38.780Z,99.99
2017-08-11T07:40:47.989Z,99.99
2017-08-11T07:41:56.878Z,99.99
2017-08-11T07:43:06.093Z,99.99
2017-08-11T07:44:15.510Z,99.99
2017-08-11T07:45:24.396Z,99.99
2017-08-11T07:46:33.603Z,99.99
2017-08-11T07:47:43.134Z,99.99
2017-08-11T07:48:52.662Z,99.99
2017-08-11T07:50:02.026Z,99.99
2017-08-11T07:51:11.880Z,99.99
2017-08-11T07:52:21.414Z,99.99
2017-08-11T07:53:30.654Z,99.99
2017-08-11T07:54:39.540Z,99.99
2017-08-11T07:55:49.596Z,99.99
2017-08-11T07:56:58.801Z,99.99
2017-08-11T07:58:08.008Z,99.99
2017-08-11T07:59:17.219Z,99.99
2017-08-11T08:00:26.437Z,99.99
2017-08-11T08:01:36.172Z,99.99
2017-08-11T08:02:45.379Z,99.99
2017-08-11T08:03:54.912Z,99.99
2017-08-11T08:05:04.121Z,99.99
2017-08-11T08:06:14.314Z,99.99
2017-08-11T08:07:23.499Z,99.99
2017-08-11T08:08:33.029Z,99.99
2017-08-11T08:09:42.565Z,99.99
2017-08-11T08:10:52.092Z,99.99
2017-08-11T08:12:01.305Z,99.99
2017-08-11T08:13:10.891Z,99.99
2017-08-11T08:14:20.430Z,99.99
2017-08-11T08:15:29.638Z,99.99
2017-08-11T08:16:38.849Z,99.99
2017-08-11T08:17:47.729Z,99.99
2017-08-11T08:18:57.039Z,99.99
2017-08-11T08:20:07.565Z,99.99
2017-08-11T08:21:17.103Z,99.99
2017-08-11T08:22:26.316Z,99.99
2017-08-11T08:23:36.173Z,99.99
2017-08-11T08:24:46.330Z,99.99
2017-08-11T08:25:55.543Z,99.99
2017-08-11T08:27:04.754Z,99.99
2017-08-11T08:28:14.608Z,99.99
2017-08-11T08:29:23.821Z,99.99
2017-08-11T08:30:33.077Z,99.99
2017-08-11T08:31:41.960Z,99.99
2017-08-11T08:32:51.170Z,99.99
2017-08-11T08:34:00.379Z,99.99
2017-08-11T08:35:09.910Z,99.99
2017-08-11T08:36:19.122Z,99.99
2017-08-11T08:37:28.656Z,99.99
2017-08-11T08:38:38.516Z,99.99
2017-08-11T08:39:48.049Z,99.99
2017-08-11T08:40:57.901Z,99.99
2017-08-11T08:42:07.534Z,99.99
2017-08-11T08:43:16.743Z,99.99
2017-08-11T08:44:25.953Z,99.99
2017-08-11T08:45:35.804Z,99.99
2017-08-11T08:46:45.659Z,99.99
2017-08-11T08:47:54.946Z,99.99
2017-08-11T08:49:04.493Z,99.99
2017-08-11T08:50:14.034Z,99.99
2017-08-11T08:51:23.578Z,99.99
2017-08-11T08:52:33.115Z,99.99
2017-08-11T08:53:42.475Z,99.99
2017-08-11T08:54:52.013Z,99.99
2017-08-11T08:56:01.550Z,99.99
2017-08-11T08:57:11.079Z,99.99
2017-08-11T08:58:20.288Z,99.99
2017-08-11T08:59:29.965Z,99.99
2017-08-11T09:00:39.170Z,99.99
2017-08-11T09:01:48.061Z,99.99
2017-08-11T09:02:57.592Z,99.99
2017-08-11T09:04:06.802Z,99.99
2017-08-11T09:05:16.159Z,99.99
2017-08-11T09:06:25.044Z,99.99
2017-08-11T09:07:34.255Z,99.99
2017-08-11T09:08:43.786Z,99.99
2017-08-11T09:09:53.655Z,99.99
2017-08-11T09:11:03.189Z,99.99
2017-08-11T09:12:12.098Z,99.99
2017-08-11T09:13:21.307Z,99.99
2017-08-11T09:14:31.165Z,99.99
2017-08-11T09:15:40.377Z,99.99
2017-08-11T09:16:49.887Z,99.99
2017-08-11T09:17:58.772Z,99.99
2017-08-11T09:19:08.301Z,99.99
2017-08-11T09:20:17.829Z,99.99
2017-08-11T09:21:27.039Z,99.99
2017-08-11T09:22:36.628Z,99.99
2017-08-11T09:23:46.161Z,99.99
2017-08-11T09:24:55.368Z,99.99
2017-08-11T09:26:04.904Z,99.99
2017-08-11T09:27:14.119Z,99.99
2017-08-11T09:28:23.633Z,99.99
2017-08-11T09:29:33.160Z,99.99
2017-08-11T09:30:42.391Z,99.99
2017-08-11T09:31:51.922Z,99.99
2017-08-11T09:33:00.805Z,99.99
2017-08-11T09:34:10.534Z,99.99
2017-08-11T09:35:19.421Z,99.99
2017-08-11T09:36:29.287Z,99.99
2017-08-11T09:37:38.499Z,99.99
2017-08-11T09:38:47.723Z,99.99
2017-08-11T09:39:57.508Z,99.99
2017-08-11T09:41:07.687Z,99.99
2017-08-11T09:42:18.192Z,99.99
2017-08-11T09:43:27.722Z,99.99
2017-08-11T09:44:37.249Z,99.99
2017-08-11T09:45:46.181Z,99.99
2017-08-11T09:46:55.713Z,99.99
2017-08-11T09:48:05.245Z,99.99
2017-08-11T09:49:14.455Z,99.99
2017-08-11T09:50:24.306Z,99.99
2017-08-11T09:51:34.459Z,99.99
2017-08-11T09:52:43.988Z,99.99
2017-08-11T09:53:53.199Z,99.99
2017-08-11T09:55:03.055Z,99.99
2017-08-11T09:56:12.590Z,99.99
2017-08-11T09:57:21.953Z,99.99
2017-08-11T09:58:31.170Z,99.99
2017-08-11T09:59:40.376Z,99.99
2017-08-11T10:00:49.911Z,99.99
2017-08-11T10:01:59.117Z,99.99
2017-08-11T10:03:08.744Z,99.99
2017-08-11T10:04:17.633Z,99.99
2017-08-11T10:05:26.846Z,99.99
2017-08-11T10:06:36.382Z,99.99
2017-08-11T10:07:45.911Z,99.99
2017-08-11T10:08:55.176Z,99.99
2017-08-11T10:10:04.718Z,99.99
2017-08-11T10:11:13.954Z,99.99
2017-08-11T10:12:23.487Z,99.99
2017-08-11T10:13:32.695Z,99.99
2017-08-11T10:14:41.583Z,99.99
2017-08-11T10:15:51.116Z,99.99
2017-08-11T10:16:59.996Z,99.99
2017-08-11T10:18:08.877Z,99.99
2017-08-11T10:19:18.086Z,99.99
2017-08-11T10:20:27.872Z,99.99
2017-08-11T10:21:37.080Z,99.99
2017-08-11T10:22:46.319Z,99.99
2017-08-11T10:23:55.204Z,99.99
2017-08-11T10:25:04.734Z,99.99
2017-08-11T10:26:14.518Z,99.99
2017-08-11T10:27:23.723Z,99.99
2017-08-11T10:28:33.304Z,99.99
2017-08-11T10:29:42.516Z,99.99
2017-08-11T10:30:51.747Z,99.99
2017-08-11T10:32:01.003Z,99.99
2017-08-11T10:33:10.212Z,99.99
2017-08-11T10:34:19.429Z,99.99
2017-08-11T10:35:28.959Z,99.99
2017-08-11T10:36:38.816Z,99.99
2017-08-11T10:37:48.074Z,99.99
2017-08-11T10:38:56.958Z,99.99
2017-08-11T10:40:06.489Z,99.99
2017-08-11T10:41:15.372Z,99.99
2017-08-11T10:42:25.556Z,99.99
2017-08-11T10:43:34.913Z,99.99
2017-08-11T10:44:44.768Z,99.99
2017-08-11T10:45:54.622Z,99.99
2017-08-11T10:47:03.828Z,99.99
2017-08-11T10:48:13.679Z,99.99
2017-08-11T10:49:23.311Z,99.99
2017-08-11T10:50:32.855Z,99.99
2017-08-11T10:51:42.712Z,99.99
2017-08-11T10:52:51.596Z,99.99
2017-08-11T10:54:00.802Z,99.99
2017-08-11T10:55:10.063Z,99.99
2017-08-11T10:56:19.593Z,99.99
2017-08-11T10:57:28.483Z,99.99
2017-08-11T10:58:38.013Z,99.99
2017-08-11T10:59:47.871Z,99.99
2017-08-11T11:00:57.126Z,99.99
2017-08-11T11:02:06.986Z,99.99
2017-08-11T11:03:16.842Z,99.99
2017-08-11T11:04:26.372Z,99.99
2017-08-11T11:05:35.586Z,99.99
2017-08-11T11:06:45.165Z,99.99
2017-08-11T11:07:54.377Z,99.99
2017-08-11T11:09:03.904Z,99.99
2017-08-11T11:10:13.113Z,99.99
2017-08-11T11:11:22.319Z,99.99
2017-08-11T11:12:32.006Z,99.99
2017-08-11T11:13:41.215Z,99.99
2017-08-11T11:14:50.112Z,99.99
2017-08-11T11:15:59.314Z,99.99
2017-08-11T11:17:09.210Z,99.99
2017-08-11T11:18:19.263Z,99.99
2017-08-11T11:19:28.478Z,99.99
2017-08-11T11:20:37.681Z,99.99
2017-08-11T11:21:46.563Z,99.99
2017-08-11T11:22:55.770Z,99.99
2017-08-11T11:24:05.555Z,99.99
2017-08-11T11:25:14.437Z,99.99
2017-08-11T11:26:24.296Z,99.99
2017-08-11T11:27:34.147Z,99.99
2017-08-11T11:28:43.363Z,99.99
2017-08-11T11:29:52.774Z,99.99
2017-08-11T11:31:01.981Z,99.99
2017-08-11T11:32:11.522Z,99.99
2017-08-11T11:33:20.733Z,99.99
2017-08-11T11:34:30.915Z,99.99
2017-08-11T11:35:40.274Z,99.99
2017-08-11T11:36:49.489Z,99.99
2017-08-11T11:37:59.350Z,99.99
2017-08-11T11:39:09.201Z,99.99
2017-08-11T11:40:18.410Z,99.99
2017-08-11T11:41:28.691Z,99.99
2017-08-11T11:42:38.567Z,99.99
2017-08-11T11:43:47.778Z,99.99
2017-08-11T11:44:56.987Z,99.99
2017-08-11T11:46:07.162Z,99.99
2017-08-11T11:47:16.526Z,99.99
2017-08-11T11:48:25.729Z,99.99
2017-08-11T11:49:35.261Z,99.99
2017-08-11T11:50:44.802Z,99.99
2017-08-11T11:51:54.333Z,99.99
2017-08-11T11:53:03.693Z,99.99
2017-08-11T11:54:13.222Z,99.99
2017-08-11T11:55:22.758Z,99.99
2017-08-11T11:56:32.624Z,99.99
2017-08-11T11:57:42.154Z,99.99
2017-08-11T11:58:52.037Z,99.99
2017-08-11T12:00:01.571Z,99.99
2017-08-11T12:01:11.102Z,99.99
2017-08-11T12:02:20.638Z,99.99
2017-08-11T12:03:30.180Z,99.99
2017-08-11T12:04:39.439Z,99.99
2017-08-11T12:05:48.323Z,99.99
2017-08-11T12:06:57.862Z,99.99
2017-08-11T12:08:07.070Z,99.99
2017-08-11T12:09:16.607Z,99.99
2017-08-11T12:10:25.813Z,99.99
2017-08-11T12:11:35.025Z,99.99
2017-08-11T12:12:43.910Z,99.99
2017-08-11T12:13:53.441Z,99.99
2017-08-11T12:15:02.334Z,99.99
2017-08-11T12:16:11.221Z,99.99
2017-08-11T12:17:21.407Z,99.99
2017-08-11T12:18:30.619Z,99.99
2017-08-11T12:19:39.826Z,99.99
2017-08-11T12:20:49.390Z,99.99
2017-08-11T12:21:59.265Z,99.99
2017-08-11T12:23:08.474Z,99.99
2017-08-11T12:24:18.016Z,99.99
2017-08-11T12:25:27.229Z,99.99
2017-08-11T12:26:37.090Z,99.99
2017-08-11T12:27:46.627Z,99.99
2017-08-11T12:28:56.163Z,99.99
2017-08-11T12:30:05.374Z,99.99
2017-08-11T12:31:14.927Z,99.99
2017-08-11T12:32:24.459Z,99.99
2017-08-11T12:33:33.994Z,99.99
2017-08-11T12:34:43.200Z,99.99
2017-08-11T12:35:52.561Z,99.99
2017-08-11T12:37:01.769Z,99.99
2017-08-11T12:38:10.981Z,99.99
2017-08-11T12:39:20.542Z,99.99
2017-08-11T12:40:29.425Z,99.99
2017-08-11T12:41:38.791Z,99.99
2017-08-11T12:42:48.650Z,99.99
2017-08-11T12:43:57.534Z,99.99
2017-08-11T12:45:07.067Z,99.99
2017-08-11T12:46:16.279Z,99.99
2017-08-11T12:47:25.319Z,99.99
2017-08-11T12:48:35.172Z,99.99
2017-08-11T12:49:45.055Z,99.99
2017-08-11T12:50:54.584Z,99.99
2017-08-11T12:52:03.478Z,99.99
2017-08-11T12:53:12.737Z,99.99
2017-08-11T12:54:22.937Z,99.99
2017-08-11T12:55:32.793Z,99.99
2017-08-11T12:56:42.329Z,99.99
2017-08-11T12:57:51.862Z,99.99
2017-08-11T12:59:01.708Z,99.99
2017-08-11T13:00:11.566Z,99.99
2017-08-11T13:01:21.102Z,99.99
2017-08-11T13:02:30.636Z,99.99
2017-08-11T13:03:39.846Z,99.99
2017-08-11T13:04:49.258Z,99.99
2017-08-11T13:05:58.152Z,99.99
2017-08-11T13:07:08.011Z,99.99
2017-08-11T13:08:16.895Z,99.99
2017-08-11T13:09:26.427Z,99.99
2017-08-11T13:10:36.035Z,99.99
2017-08-11T13:11:45.886Z,99.99
2017-08-11T13:12:55.414Z,99.99
2017-08-11T13:14:04.630Z,99.99
2017-08-11T13:15:13.518Z,99.99
2017-08-11T13:16:23.197Z,99.99
2017-08-11T13:17:32.093Z,99.99
2017-08-11T13:18:41.717Z,99.99
2017-08-11T13:19:50.613Z,99.99
2017-08-11T13:21:00.145Z,99.99
2017-08-11T13:22:09.333Z,99.99
2017-08-11T13:23:19.188Z,99.99
2017-08-11T13:24:28.721Z,99.99
2017-08-11T13:25:37.934Z,99.99
2017-08-11T13:26:47.148Z,99.99
2017-08-11T13:27:56.405Z,99.99
2017-08-11T13:29:05.934Z,99.99
2017-08-11T13:30:15.472Z,99.99
2017-08-11T13:31:25.658Z,99.99
2017-08-11T13:32:35.849Z,99.99
2017-08-11T13:33:45.855Z,99.99
2017-08-11T13:34:54.742Z,99.99
2017-08-11T13:36:03.632Z,99.99
2017-08-11T13:37:12.846Z,99.99
2017-08-11T13:38:22.710Z,99.99
2017-08-11T13:39:32.862Z,99.99
2017-08-11T13:40:42.393Z,99.99
2017-08-11T13:41:51.944Z,99.99
2017-08-11T13:43:02.411Z,99.99
2017-08-11T13:44:11.938Z,99.99
2017-08-11T13:45:21.298Z,99.99
2017-08-11T13:46:30.830Z,99.99
2017-08-11T13:47:40.369Z,99.99
2017-08-11T13:48:49.581Z,99.99
2017-08-11T13:49:59.435Z,99.99
2017-08-11T13:51:08.904Z,99.99
2017-08-11T13:52:17.796Z,99.99
2017-08-11T13:53:27.006Z,99.99
2017-08-11T13:54:36.543Z,99.99
2017-08-11T13:55:45.766Z,99.99
2017-08-11T13:56:56.098Z,99.99
2017-08-11T13:58:04.985Z,99.99
2017-08-11T13:59:14.843Z,99.99
2017-08-11T14:00:24.383Z,99.99
2017-08-11T14:01:33.606Z,99.99
2017-08-11T14:02:43.194Z,99.99
2017-08-11T14:03:52.404Z,99.99
2017-08-11T14:05:01.289Z,99.99
2017-08-11T14:06:11.471Z,99.99
2017-08-11T14:07:20.365Z,99.99
2017-08-11T14:08:29.301Z,99.99
2017-08-11T14:09:38.509Z,99.99
2017-08-11T14:10:47.718Z,99.99
2017-08-11T14:11:57.249Z,99.99
2017-08-11T14:13:07.105Z,99.99
2017-08-11T14:14:16.832Z,99.99
2017-08-11T14:15:26.042Z,99.99
2017-08-11T14:16:35.896Z,99.99
2017-08-11T14:17:45.439Z,99.99
2017-08-11T14:18:54.648Z,99.99
2017-08-11T14:20:04.057Z,99.99
2017-08-11T14:21:13.591Z,99.99
2017-08-11T14:22:23.213Z,99.99
2017-08-11T14:23:32.738Z,99.99
2017-08-11T14:24:42.628Z,99.99
2017-08-11T14:25:51.843Z,99.99
2017-08-11T14:27:01.374Z,99.99
2017-08-11T14:28:10.908Z,99.99
2017-08-11T14:29:20.121Z,99.99
2017-08-11T14:30:29.338Z,99.99
2017-08-11T14:31:38.969Z,99.99
2017-08-11T14:32:48.499Z,99.99
2017-08-11T14:33:58.033Z,99.99
2017-08-11T14:35:07.890Z,99.99
2017-08-11T14:36:17.101Z,99.99
2017-08-11T14:37:26.847Z,99.99
2017-08-11T14:38:36.378Z,99.99
2017-08-11T14:39:45.913Z,99.99
2017-08-11T14:40:55.447Z,99.99
2017-08-11T14:42:04.340Z,99.99
2017-08-11T14:43:13.600Z,99.99
2017-08-11T14:44:23.458Z,99.99
2017-08-11T14:45:33.322Z,99.99
2017-08-11T14:46:42.546Z,99.99
2017-08-11T14:47:51.761Z,99.99
2017-08-11T14:49:01.543Z,99.99
2017-08-11T14:50:11.080Z,99.99
2017-08-11T14:51:20.944Z,99.99
2017-08-11T14:52:30.152Z,99.99
2017-08-11T14:53:39.705Z,99.99